Time;durP1;ratioP1;P1;durP2;ratioP2;P2;SDS_P1;SDS_P2;PMS_P1;PMS_P2;Temp;Humidity;BMP_temperature;BMP_pressure;BME280_temperature;BME280_humidity;BME280_pressure;Samples;Min_cycle;Max_cycle;Signal;HPM_P1;HPM_P2
2024/03/29 01:47:17;;;;;;;7.22;3.88;;;;;;;;;;10265285;28;20095;-61
2024/03/29 01:52:17;;;;;;;11.77;3.10;;;;;;;;;;10275282;28;20466;-62
2024/03/29 01:57:15;;;;;;;7.45;3.25;;;;;;;;;;10293065;28;20494;-62
2024/03/29 02:02:12;;;;;;;7.35;2.83;;;;;;;;;;10276821;28;20075;-60
2024/03/29 02:07:10;;;;;;;6.75;2.83;;;;;;;;;;10282591;28;20513;-61
2024/03/29 02:12:09;;;;;;;7.80;3.50;;;;;;;;;;10275185;28;20505;-61
2024/03/29 02:17:06;;;;;;;8.38;3.40;;;;;;;;;;10265690;28;20516;-60
2024/03/29 02:22:06;;;;;;;10.43;4.07;;;;;;;;;;10282238;28;20083;-62
2024/03/29 02:27:05;;;;;;;8.43;3.75;;;;;;;;;;10281560;28;20084;-62
2024/03/29 02:32:03;;;;;;;6.85;2.92;;;;;;;;;;10275930;28;20478;-63
2024/03/29 02:37:01;;;;;;;10.77;2.95;;;;;;;;;;10280346;28;20095;-62
2024/03/29 02:41:58;;;;;;;7.38;2.80;;;;;;;;;;10276083;28;20065;-63
2024/03/29 02:46:57;;;;;;;5.70;2.60;;;;;;;;;;10276602;28;20060;-61
2024/03/29 02:51:54;;;;;;;8.38;3.13;;;;;;;;;;10274629;28;20087;-62
2024/03/29 02:56:52;;;;;;;10.23;2.88;;;;;;;;;;10274856;28;20064;-62
2024/03/29 03:01:49;;;;;;;10.02;3.15;;;;;;;;;;10280304;28;20072;-62
2024/03/29 03:06:48;;;;;;;16.05;3.92;;;;;;;;;;10282210;28;20086;-61
2024/03/29 03:11:45;;;;;;;10.98;3.30;;;;;;;;;;10283173;28;20513;-61
2024/03/29 03:16:42;;;;;;;8.38;2.97;;;;;;;;;;10287995;28;20069;-61
2024/03/29 03:21:39;;;;;;;9.57;3.42;;;;;;;;;;10287746;28;20087;-62
2024/03/29 03:26:38;;;;;;;7.95;2.95;;;;;;;;;;10279086;28;20068;-62
2024/03/29 03:31:36;;;;;;;8.13;3.35;;;;;;;;;;10288287;28;20076;-62
2024/03/29 03:36:33;;;;;;;14.95;4.65;;;;;;;;;;10290462;28;20080;-62
2024/03/29 03:41:30;;;;;;;9.48;4.30;;;;;;;;;;10286495;28;20532;-62
2024/03/29 03:46:29;;;;;;;29.70;10.98;;;;;;;;;;10285550;28;20081;-62
2024/03/29 03:51:27;;;;;;;11.15;3.58;;;;;;;;;;10284978;28;20071;-61
2024/03/29 03:56:24;;;;;;;9.27;3.97;;;;;;;;;;10287152;28;20072;-61
2024/03/29 04:01:22;;;;;;;10.75;4.03;;;;;;;;;;10280575;28;20068;-62
2024/03/29 04:06:20;;;;;;;8.98;4.03;;;;;;;;;;10284121;28;20162;-62
2024/03/29 04:11:18;;;;;;;9.07;3.72;;;;;;;;;;10278324;28;20072;-62
2024/03/29 04:16:15;;;;;;;10.05;3.80;;;;;;;;;;10281120;28;20060;-62
2024/03/29 04:21:13;;;;;;;12.85;4.20;;;;;;;;;;10286404;28;20064;-62
2024/03/29 04:26:12;;;;;;;12.05;4.47;;;;;;;;;;10301625;28;20075;-62
2024/03/29 04:31:09;;;;;;;9.65;3.45;;;;;;;;;;10280761;28;20068;-62
2024/03/29 04:36:07;;;;;;;14.80;4.82;;;;;;;;;;10277782;28;20076;-62
2024/03/29 04:41:05;;;;;;;6.22;3.20;;;;;;;;;;10296649;28;20077;-61
2024/03/29 04:46:05;;;;;;;11.63;3.95;;;;;;;;;;10299779;28;20068;-61
2024/03/29 04:51:02;;;;;;;11.50;3.53;;;;;;;;;;10278526;28;20585;-62
2024/03/29 04:56:00;;;;;;;8.65;3.17;;;;;;;;;;10281731;28;20072;-61
2024/03/29 05:00:57;;;;;;;12.52;2.92;;;;;;;;;;10279160;28;20067;-61
2024/03/29 05:05:57;;;;;;;11.65;3.78;;;;;;;;;;10281731;28;20064;-61
2024/03/29 05:10:54;;;;;;;11.07;3.22;;;;;;;;;;10276819;28;20463;-61
2024/03/29 05:15:52;;;;;;;8.60;3.60;;;;;;;;;;10280979;28;20072;-63
2024/03/29 05:20:51;;;;;;;5.53;2.90;;;;;;;;;;10283113;28;20060;-63
2024/03/29 05:25:50;;;;;;;7.43;3.08;;;;;;;;;;10279099;28;20087;-62
2024/03/29 05:30:47;;;;;;;9.30;2.65;;;;;;;;;;10310424;28;20068;-63
2024/03/29 05:35:45;;;;;;;8.02;3.42;;;;;;;;;;10277826;28;20075;-63
2024/03/29 05:40:42;;;;;;;8.77;2.85;;;;;;;;;;10280531;28;20063;-62
2024/03/29 05:45:41;;;;;;;7.68;2.63;;;;;;;;;;10282740;28;20068;-62
2024/03/29 05:50:38;;;;;;;6.25;2.72;;;;;;;;;;10290428;28;20060;-62
2024/03/29 05:55:36;;;;;;;6.10;3.30;;;;;;;;;;10301341;28;20080;-62
2024/03/29 06:00:34;;;;;;;6.82;2.70;;;;;;;;;;10274309;28;20080;-62
2024/03/29 06:05:33;;;;;;;4.85;2.65;;;;;;;;;;10274101;28;20118;-63
2024/03/29 06:10:30;;;;;;;5.68;2.67;;;;;;;;;;10269409;28;20081;-63
2024/03/29 06:20:44;;;;;;;4.68;2.58;;;;;;;;;;10238331;28;20069;-62
2024/03/29 06:25:42;;;;;;;8.77;3.28;;;;;;;;;;10239032;28;20083;-62
2024/03/29 06:30:39;;;;;;;7.32;4.45;;;;;;;;;;10242784;28;20632;-62
2024/03/29 06:35:37;;;;;;;6.22;2.85;;;;;;;;;;10244259;28;20065;-63
2024/03/29 06:40:35;;;;;;;6.30;2.33;;;;;;;;;;10238742;28;20540;-63
2024/03/29 06:45:33;;;;;;;10.35;3.72;;;;;;;;;;10266901;28;20069;-63
2024/03/29 06:50:30;;;;;;;6.20;3.40;;;;;;;;;;10235191;28;20103;-63
2024/03/29 06:55:28;;;;;;;5.03;3.25;;;;;;;;;;10237211;28;20065;-62
2024/03/29 07:00:26;;;;;;;14.63;4.55;;;;;;;;;;10234109;28;20075;-62
2024/03/29 07:05:24;;;;;;;10.25;3.75;;;;;;;;;;10255287;28;20089;-63
2024/03/29 07:10:21;;;;;;;9.80;3.47;;;;;;;;;;10239140;28;20061;-62
2024/03/29 07:15:19;;;;;;;9.38;3.78;;;;;;;;;;10279170;28;20497;-62
2024/03/29 07:20:17;;;;;;;4.65;3.08;;;;;;;;;;10278400;28;20068;-62
2024/03/29 07:25:15;;;;;;;5.80;2.70;;;;;;;;;;10272861;28;20066;-62
2024/03/29 07:30:13;;;;;;;5.45;2.97;;;;;;;;;;10279235;28;20079;-62
2024/03/29 07:35:14;;;;;;;5.53;1.92;;;;;;;;;;10284289;28;20075;-62
2024/03/29 07:40:13;;;;;;;2.55;1.77;;;;;;;;;;10268313;28;20068;-60
2024/03/29 07:45:11;;;;;;;3.35;2.03;;;;;;;;;;10276148;28;20087;-61
2024/03/29 07:50:10;;;;;;;3.40;2.00;;;;;;;;;;10281929;28;20499;-62
2024/03/29 07:55:09;;;;;;;3.47;1.80;;;;;;;;;;10281471;28;20079;-61
2024/03/29 08:00:10;;;;;;;8.10;3.33;;;;;;;;;;10286135;28;20060;-61
2024/03/29 08:05:07;;;;;;;4.82;2.10;;;;;;;;;;10287840;28;20083;-60
2024/03/29 08:10:06;;;;;;;7.00;2.42;;;;;;;;;;10286533;28;20080;-61
2024/03/29 08:15:04;;;;;;;3.85;1.40;;;;;;;;;;10284983;28;20524;-61
2024/03/29 08:20:03;;;;;;;6.20;2.20;;;;;;;;;;10288749;28;20099;-61
2024/03/29 08:25:00;;;;;;;2.67;1.42;;;;;;;;;;10278525;28;20083;-61
2024/03/29 08:29:58;;;;;;;4.53;1.98;;;;;;;;;;10280292;28;20060;-61
2024/03/29 08:34:56;;;;;;;7.15;2.80;;;;;;;;;;10280715;28;20550;-62
2024/03/29 08:39:54;;;;;;;7.82;1.88;;;;;;;;;;10289804;28;20072;-62
2024/03/29 08:44:53;;;;;;;3.50;1.83;;;;;;;;;;10266400;28;20088;-62
2024/03/29 08:49:50;;;;;;;3.38;1.77;;;;;;;;;;10289273;28;20067;-61
2024/03/29 08:54:48;;;;;;;9.25;1.92;;;;;;;;;;10280003;28;20064;-62
2024/03/29 08:59:46;;;;;;;4.75;1.42;;;;;;;;;;10281231;28;20126;-61
2024/03/29 09:04:44;;;;;;;4.28;1.80;;;;;;;;;;10285473;28;20069;-62
2024/03/29 09:09:41;;;;;;;7.35;2.17;;;;;;;;;;10277078;28;20064;-61
2024/03/29 09:14:39;;;;;;;8.65;2.75;;;;;;;;;;10276274;28;20083;-62
2024/03/29 09:19:38;;;;;;;8.40;2.78;;;;;;;;;;10288584;28;20061;-63
2024/03/29 09:24:35;;;;;;;6.32;2.17;;;;;;;;;;10277393;28;20520;-62
2024/03/29 09:29:32;;;;;;;10.35;2.67;;;;;;;;;;10278094;28;20071;-61
2024/03/29 09:34:30;;;;;;;7.47;2.50;;;;;;;;;;10277287;28;20068;-62
2024/03/29 09:39:29;;;;;;;11.52;2.13;;;;;;;;;;10280579;28;20068;-62
2024/03/29 09:44:31;;;;;;;8.60;2.17;;;;;;;;;;10280504;28;20068;-62
2024/03/29 09:49:29;;;;;;;7.72;1.85;;;;;;;;;;10286362;28;20072;-62
2024/03/29 09:54:29;;;;;;;5.72;1.95;;;;;;;;;;10280367;28;20056;-61
2024/03/29 09:59:27;;;;;;;7.50;1.98;;;;;;;;;;10278250;28;20075;-61
2024/03/29 10:04:25;;;;;;;4.97;2.05;;;;;;;;;;10273773;28;20091;-61
2024/03/29 10:09:29;;;;;;;6.30;1.88;;;;;;;;;;10278681;28;20087;-61
2024/03/29 10:14:28;;;;;;;4.72;2.15;;;;;;;;;;10275087;28;20080;-62
2024/03/29 10:19:25;;;;;;;7.35;2.33;;;;;;;;;;10274630;28;20087;-62
2024/03/29 10:24:23;;;;;;;5.75;1.92;;;;;;;;;;10275229;28;20071;-62
2024/03/29 10:29:20;;;;;;;7.10;2.45;;;;;;;;;;10271675;28;20497;-62
2024/03/29 10:34:20;;;;;;;5.95;2.40;;;;;;;;;;10276385;28;20493;-62
2024/03/29 10:39:17;;;;;;;7.30;2.55;;;;;;;;;;10283444;28;20555;-62
2024/03/29 10:44:15;;;;;;;8.80;1.60;;;;;;;;;;10274920;28;20083;-62
2024/03/29 10:49:14;;;;;;;9.55;2.72;;;;;;;;;;10276004;28;20552;-62
2024/03/29 10:54:13;;;;;;;9.90;2.28;;;;;;;;;;10274581;28;20073;-63
2024/03/29 10:59:13;;;;;;;6.00;1.77;;;;;;;;;;10274050;28;20071;-62
2024/03/29 11:04:13;;;;;;;6.65;2.55;;;;;;;;;;10289690;28;20064;-61
2024/03/29 11:09:14;;;;;;;4.50;1.73;;;;;;;;;;10277699;28;20084;-61
2024/03/29 11:14:16;;;;;;;6.03;2.97;;;;;;;;;;10274516;28;20556;-61
2024/03/29 11:19:14;;;;;;;6.80;1.90;;;;;;;;;;10275778;28;20060;-62
2024/03/29 11:24:12;;;;;;;5.90;1.92;;;;;;;;;;10280612;28;20465;-61
2024/03/29 11:29:18;;;;;;;2.85;1.88;;;;;;;;;;10291426;28;20072;-62
2024/03/29 11:34:19;;;;;;;6.13;2.08;;;;;;;;;;10282716;28;20037;-61
2024/03/29 11:39:27;;;;;;;4.15;2.13;;;;;;;;;;10285966;28;20103;-62
2024/03/29 11:44:24;;;;;;;7.43;1.80;;;;;;;;;;10282253;28;20072;-61
2024/03/29 11:49:23;;;;;;;4.15;1.60;;;;;;;;;;10269272;28;20684;-61
2024/03/29 11:54:23;;;;;;;4.70;1.67;;;;;;;;;;10279703;28;20098;-62
2024/03/29 11:59:22;;;;;;;6.45;1.50;;;;;;;;;;10284976;28;20524;-61
2024/03/29 12:04:21;;;;;;;5.97;1.52;;;;;;;;;;10285284;28;20068;-62
2024/03/29 12:09:20;;;;;;;6.03;1.88;;;;;;;;;;10281943;28;20052;-61
2024/03/29 12:14:18;;;;;;;6.25;1.65;;;;;;;;;;10280454;28;20647;-61
2024/03/29 12:19:27;;;;;;;9.50;2.15;;;;;;;;;;10282524;28;20052;-61
2024/03/29 12:24:26;;;;;;;9.02;1.80;;;;;;;;;;10288400;28;20072;-61
2024/03/29 12:29:24;;;;;;;8.77;1.77;;;;;;;;;;10280095;28;20071;-62
2024/03/29 12:34:22;;;;;;;5.93;1.60;;;;;;;;;;10278926;28;20075;-61
2024/03/29 12:39:20;;;;;;;5.97;1.73;;;;;;;;;;10279523;28;20100;-61
2024/03/29 12:44:19;;;;;;;7.03;2.10;;;;;;;;;;10280116;28;20071;-61
2024/03/29 12:49:16;;;;;;;6.35;1.80;;;;;;;;;;10277960;28;20060;-61
2024/03/29 12:54:14;;;;;;;14.35;2.08;;;;;;;;;;10278033;28;20076;-62
2024/03/29 12:59:12;;;;;;;5.28;1.75;;;;;;;;;;10280162;28;20060;-62
2024/03/29 13:04:12;;;;;;;4.70;2.00;;;;;;;;;;10284642;28;20060;-62
2024/03/29 13:09:10;;;;;;;4.07;2.38;;;;;;;;;;10285435;28;20540;-62
2024/03/29 13:14:09;;;;;;;9.52;2.10;;;;;;;;;;10279574;28;20079;-62
2024/03/29 13:19:06;;;;;;;9.05;1.75;;;;;;;;;;10270644;28;20045;-61
2024/03/29 13:24:05;;;;;;;4.78;1.98;;;;;;;;;;10276030;28;20079;-61
2024/03/29 13:29:03;;;;;;;3.95;1.65;;;;;;;;;;10280594;28;20072;-61
2024/03/29 13:34:11;;;;;;;5.45;1.83;;;;;;;;;;10277837;28;20071;-64
2024/03/29 13:39:13;;;;;;;3.50;1.33;;;;;;;;;;10277041;28;20071;-64
2024/03/29 13:44:10;;;;;;;10.32;1.83;;;;;;;;;;10278554;28;20529;-63
2024/03/29 13:49:07;;;;;;;9.40;2.65;;;;;;;;;;10276491;28;20091;-62
2024/03/29 13:54:05;;;;;;;7.95;2.00;;;;;;;;;;10277471;28;20065;-63
2024/03/29 13:59:04;;;;;;;4.65;2.00;;;;;;;;;;10277692;28;20076;-61
2024/03/29 14:04:02;;;;;;;2.85;1.55;;;;;;;;;;10278365;28;20079;-62
2024/03/29 14:08:59;;;;;;;4.78;2.22;;;;;;;;;;10284358;28;20355;-62
2024/03/29 14:13:57;;;;;;;4.38;1.75;;;;;;;;;;10279862;28;20077;-62
2024/03/29 14:18:56;;;;;;;7.10;2.50;;;;;;;;;;10280856;28;20064;-62
2024/03/29 14:23:54;;;;;;;6.55;2.63;;;;;;;;;;10275471;28;20056;-60
2024/03/29 14:28:51;;;;;;;7.10;1.88;;;;;;;;;;10282809;28;20536;-62
2024/03/29 14:33:49;;;;;;;6.32;2.42;;;;;;;;;;10276171;28;20076;-62
2024/03/29 14:38:48;;;;;;;5.05;1.75;;;;;;;;;;10273204;28;20072;-62
2024/03/29 14:43:47;;;;;;;7.03;1.85;;;;;;;;;;10275950;28;20559;-62
2024/03/29 14:48:44;;;;;;;6.32;2.22;;;;;;;;;;10283087;28;20072;-62
2024/03/29 14:53:47;;;;;;;14.73;3.17;;;;;;;;;;10274147;28;20060;-62
2024/03/29 14:58:47;;;;;;;3.28;2.20;;;;;;;;;;10274070;28;20473;-62
2024/03/29 15:03:44;;;;;;;7.60;1.92;;;;;;;;;;10275507;28;20080;-63
2024/03/29 15:08:42;;;;;;;3.85;1.98;;;;;;;;;;10273357;28;20148;-63
2024/03/29 15:13:39;;;;;;;8.77;2.30;;;;;;;;;;10274926;28;20095;-61
2024/03/29 15:18:38;;;;;;;12.02;4.70;;;;;;;;;;10274305;28;20072;-61
2024/03/29 15:23:36;;;;;;;6.82;2.80;;;;;;;;;;10279751;28;20068;-60
2024/03/29 15:33:50;;;;;;;8.52;2.35;;;;;;;;;;10279472;28;20067;-63
2024/03/29 15:38:48;;;;;;;6.47;2.85;;;;;;;;;;10278685;28;20083;-63
2024/03/29 15:43:46;;;;;;;5.63;2.00;;;;;;;;;;10269442;28;20061;-62
2024/03/29 15:48:43;;;;;;;4.50;2.47;;;;;;;;;;10266663;28;20068;-61
2024/03/29 15:53:42;;;;;;;6.50;4.28;;;;;;;;;;10271233;28;20086;-62
2024/03/29 15:58:39;;;;;;;7.80;2.72;;;;;;;;;;10270692;28;20445;-61
2024/03/29 16:03:37;;;;;;;4.55;3.30;;;;;;;;;;10273996;28;20072;-61
2024/03/29 16:08:37;;;;;;;11.40;6.53;;;;;;;;;;10277139;28;20524;-62
2024/03/29 16:13:36;;;;;;;7.47;5.95;;;;;;;;;;10282253;28;20593;-62
2024/03/29 16:18:35;;;;;;;16.48;11.82;;;;;;;;;;10283199;28;20077;-63
2024/03/29 16:23:33;;;;;;;10.30;7.55;;;;;;;;;;10276406;28;20166;-61
2024/03/29 16:28:32;;;;;;;10.10;6.90;;;;;;;;;;10281180;28;20060;-61
2024/03/29 16:33:34;;;;;;;11.57;6.03;;;;;;;;;;10289631;28;20521;-62
2024/03/29 16:38:32;;;;;;;19.40;13.68;;;;;;;;;;10289345;28;20056;-60
2024/03/29 16:43:30;;;;;;;24.35;18.35;;;;;;;;;;10282703;28;20544;-61
2024/03/29 16:48:27;;;;;;;15.52;13.90;;;;;;;;;;10282253;28;20060;-61
2024/03/29 16:53:26;;;;;;;16.75;11.30;;;;;;;;;;10281237;28;20485;-61
2024/03/29 16:58:24;;;;;;;10.63;8.30;;;;;;;;;;10275976;28;20068;-61
2024/03/29 17:03:22;;;;;;;20.25;14.25;;;;;;;;;;10278648;28;20083;-61
2024/03/29 17:08:19;;;;;;;11.93;7.50;;;;;;;;;;10302209;28;20076;-61
2024/03/29 17:13:18;;;;;;;10.25;7.18;;;;;;;;;;10278563;28;20529;-61
2024/03/29 17:18:16;;;;;;;10.85;6.35;;;;;;;;;;10278773;28;20089;-61
2024/03/29 17:23:13;;;;;;;7.82;4.20;;;;;;;;;;10287077;28;20524;-60
2024/03/29 17:28:11;;;;;;;8.40;4.22;;;;;;;;;;10277497;28;20306;-62
2024/03/29 17:33:12;;;;;;;11.63;3.97;;;;;;;;;;10278218;28;20068;-62
2024/03/29 17:38:12;;;;;;;6.70;2.80;;;;;;;;;;10287753;28;20433;-62
2024/03/29 17:43:11;;;;;;;5.78;3.58;;;;;;;;;;10284026;28;20540;-62
2024/03/29 17:48:09;;;;;;;7.57;3.03;;;;;;;;;;10285074;28;20087;-61
2024/03/29 17:53:07;;;;;;;6.20;2.75;;;;;;;;;;10281791;28;20087;-61
2024/03/29 17:58:05;;;;;;;6.57;2.78;;;;;;;;;;10291748;28;20095;-61
2024/03/29 18:03:03;;;;;;;3.72;2.13;;;;;;;;;;10285524;28;20532;-61
2024/03/29 18:08:01;;;;;;;8.05;3.85;;;;;;;;;;10279129;28;20064;-61
2024/03/29 18:12:59;;;;;;;5.50;2.63;;;;;;;;;;10295554;28;20513;-61
2024/03/29 18:17:56;;;;;;;3.60;2.20;;;;;;;;;;10277154;28;20067;-62
2024/03/29 18:22:55;;;;;;;4.05;2.70;;;;;;;;;;10275829;28;20514;-61
2024/03/29 18:27:54;;;;;;;7.55;3.33;;;;;;;;;;10285712;28;20073;-61
2024/03/29 18:32:51;;;;;;;5.10;2.30;;;;;;;;;;10277868;28;20068;-62
2024/03/29 18:37:50;;;;;;;4.90;1.92;;;;;;;;;;10275336;28;20060;-62
2024/03/29 18:42:48;;;;;;;3.83;2.03;;;;;;;;;;10274521;28;20068;-62
2024/03/29 18:47:46;;;;;;;5.40;2.40;;;;;;;;;;10273403;28;20537;-62
2024/03/29 18:52:44;;;;;;;6.35;2.72;;;;;;;;;;10277851;28;20067;-62
2024/03/29 18:57:42;;;;;;;9.02;2.42;;;;;;;;;;10276764;28;20520;-62
2024/03/29 19:02:39;;;;;;;4.25;2.50;;;;;;;;;;10273271;28;20083;-62
2024/03/29 19:07:38;;;;;;;4.88;2.08;;;;;;;;;;10276125;28;20068;-61
2024/03/29 19:12:35;;;;;;;4.72;2.50;;;;;;;;;;10255128;28;20076;-62
2024/03/29 19:17:33;;;;;;;4.90;1.98;;;;;;;;;;10268133;28;20473;-62
2024/03/29 19:22:30;;;;;;;5.35;2.20;;;;;;;;;;10233902;28;20462;-61
2024/03/29 19:27:29;;;;;;;7.57;2.58;;;;;;;;;;10235673;28;20057;-61
2024/03/29 19:32:28;;;;;;;4.63;2.90;;;;;;;;;;10240536;28;20064;-61
2024/03/29 19:37:25;;;;;;;7.10;2.38;;;;;;;;;;10232840;28;20496;-62
2024/03/29 19:42:23;;;;;;;7.57;2.42;;;;;;;;;;10239853;28;20296;-61
2024/03/29 19:47:24;;;;;;;10.13;2.55;;;;;;;;;;10245008;28;20065;-61
2024/03/29 19:52:21;;;;;;;3.65;2.10;;;;;;;;;;10241608;28;20073;-61
2024/03/29 19:57:19;;;;;;;4.85;2.40;;;;;;;;;;10242316;28;20073;-61
2024/03/29 20:02:16;;;;;;;7.15;2.33;;;;;;;;;;10245056;28;20061;-61
2024/03/29 20:07:15;;;;;;;4.00;2.05;;;;;;;;;;10239549;28;20077;-61
2024/03/29 20:12:13;;;;;;;5.28;2.35;;;;;;;;;;10261701;28;20488;-61
2024/03/29 20:17:12;;;;;;;6.47;2.42;;;;;;;;;;10288069;28;20065;-62
2024/03/29 20:22:12;;;;;;;5.40;2.15;;;;;;;;;;10278426;28;20123;-62
2024/03/29 20:27:11;;;;;;;3.10;2.00;;;;;;;;;;10277404;28;20068;-63
2024/03/29 20:32:08;;;;;;;6.15;2.13;;;;;;;;;;10284062;28;20083;-64
2024/03/29 20:37:08;;;;;;;4.15;2.13;;;;;;;;;;10283819;28;20065;-61
2024/03/29 20:42:06;;;;;;;9.85;2.28;;;;;;;;;;10283794;28;20643;-62
2024/03/29 20:47:05;;;;;;;5.00;2.10;;;;;;;;;;10283943;28;20513;-63
2024/03/29 20:52:03;;;;;;;7.07;2.05;;;;;;;;;;10261429;28;20076;-63
2024/03/29 20:57:01;;;;;;;5.45;2.67;;;;;;;;;;10272131;28;20533;-61
2024/03/29 21:07:14;;;;;;;5.40;1.92;;;;;;;;;;10278072;28;20064;-62
2024/03/29 21:12:12;;;;;;;5.35;1.95;;;;;;;;;;10272562;28;20072;-61
2024/03/29 21:17:10;;;;;;;6.82;2.17;;;;;;;;;;10274972;28;20075;-63
2024/03/29 21:22:07;;;;;;;2.55;1.40;;;;;;;;;;10275817;28;20508;-62
2024/03/29 21:27:06;;;;;;;5.63;1.65;;;;;;;;;;10277019;28;20071;-62
2024/03/29 21:32:04;;;;;;;4.47;2.33;;;;;;;;;;10276566;28;20454;-61
2024/03/29 21:37:02;;;;;;;5.53;2.40;;;;;;;;;;10276894;28;20511;-61
2024/03/29 21:42:01;;;;;;;3.45;1.75;;;;;;;;;;10275180;28;20102;-61
2024/03/29 21:47:00;;;;;;;4.88;1.90;;;;;;;;;;10276849;28;20517;-62
2024/03/29 21:51:57;;;;;;;3.15;1.65;;;;;;;;;;10293241;28;20068;-62
2024/03/29 21:56:55;;;;;;;4.03;2.47;;;;;;;;;;10277314;28;20079;-63
2024/03/29 22:01:52;;;;;;;4.53;1.90;;;;;;;;;;10258376;28;20504;-63
2024/03/29 22:06:51;;;;;;;3.78;1.65;;;;;;;;;;10282745;28;20080;-63
2024/03/29 22:11:48;;;;;;;2.38;1.80;;;;;;;;;;10275566;28;20119;-62
2024/03/29 22:16:46;;;;;;;5.35;1.70;;;;;;;;;;10275977;28;20073;-62
2024/03/29 22:21:43;;;;;;;11.52;2.15;;;;;;;;;;10275990;28;20060;-62
2024/03/29 22:26:42;;;;;;;7.20;2.63;;;;;;;;;;10272464;28;20072;-63
2024/03/29 22:31:41;;;;;;;4.70;2.03;;;;;;;;;;10274729;28;20094;-62
2024/03/29 22:36:39;;;;;;;3.92;1.70;;;;;;;;;;10275955;28;20063;-60
2024/03/29 22:41:36;;;;;;;3.10;1.50;;;;;;;;;;10280823;28;20505;-62
2024/03/29 22:46:35;;;;;;;5.65;2.40;;;;;;;;;;10273173;28;20068;-62
2024/03/29 22:51:32;;;;;;;4.00;1.85;;;;;;;;;;10274281;28;20068;-62
2024/03/29 22:56:30;;;;;;;8.88;2.10;;;;;;;;;;10275968;28;20065;-63
2024/03/29 23:01:27;;;;;;;3.30;2.00;;;;;;;;;;10276197;28;20588;-63
2024/03/29 23:06:26;;;;;;;3.08;1.42;;;;;;;;;;10272846;28;20076;-62
2024/03/29 23:11:24;;;;;;;4.57;1.88;;;;;;;;;;10274754;28;20092;-62
2024/03/29 23:16:21;;;;;;;3.53;1.58;;;;;;;;;;10278603;28;20505;-63
2024/03/29 23:21:19;;;;;;;4.28;1.63;;;;;;;;;;10283833;28;20484;-62
2024/03/29 23:26:18;;;;;;;4.45;1.50;;;;;;;;;;10283586;28;20080;-63
2024/03/29 23:31:15;;;;;;;3.65;1.80;;;;;;;;;;10284092;28;20068;-61
2024/03/29 23:36:13;;;;;;;5.40;1.58;;;;;;;;;;10281231;28;20069;-64
2024/03/29 23:41:10;;;;;;;3.60;1.80;;;;;;;;;;10283519;28;20072;-63
2024/03/29 23:46:09;;;;;;;3.47;2.00;;;;;;;;;;10281547;28;20068;-61
2024/03/29 23:51:07;;;;;;;7.32;2.15;;;;;;;;;;10282349;28;20072;-62
2024/03/29 23:56:05;;;;;;;3.10;1.55;;;;;;;;;;10289003;28;20509;-62
